Time;durP1;ratioP1;P1;durP2;ratioP2;P2;SDS_P1;SDS_P2;PMS_P1;PMS_P2;Temp;Humidity;BMP_temperature;BMP_pressure;BME280_temperature;BME280_humidity;BME280_pressure;Samples;Min_cycle;Max_cycle;Signal;HPM_P1;HPM_P2
2022/02/18 00:01:28;;;;;;;15.57;4.77;;;;;;;9.23;64.49;98554.44;5019204;27;102647;-71
2022/02/18 00:04:00;;;;;;;19.17;4.93;;;;;;;9.25;64.56;98565.72;5020933;27;103520;-71
2022/02/18 00:06:28;;;;;;;12.30;3.67;;;;;;;9.17;64.49;98566.25;5020528;27;104333;-75
2022/02/18 00:08:56;;;;;;;10.10;3.27;;;;;;;9.25;64.55;98548.13;5022540;27;104142;-75
2022/02/18 00:11:27;;;;;;;9.00;3.40;;;;;;;9.18;64.75;98556.53;5019206;27;102626;-75
2022/02/18 00:13:58;;;;;;;10.27;3.47;;;;;;;9.13;64.99;98548.09;5020346;27;103944;-75
2022/02/18 00:16:26;;;;;;;13.53;3.93;;;;;;;9.14;64.67;98560.34;5020793;27;103180;-75
2022/02/18 00:18:54;;;;;;;18.87;5.47;;;;;;;9.06;65.52;98552.13;5021791;27;103360;-71
2022/02/18 00:21:22;;;;;;;12.30;3.93;;;;;;;9.00;65.54;98555.19;5018480;27;102747;-71
2022/02/18 00:23:50;;;;;;;11.43;3.30;;;;;;;9.00;65.78;98552.53;5019389;27;103135;-71
2022/02/18 00:26:20;;;;;;;11.07;3.50;;;;;;;9.02;65.78;98545.38;5021990;27;103772;-71
2022/02/18 00:28:49;;;;;;;11.00;3.27;;;;;;;9.06;65.58;98562.66;5021116;27;103163;-71
2022/02/18 00:31:25;;;;;;;14.57;3.83;;;;;;;9.05;65.54;98555.69;5021824;27;102601;-71
2022/02/18 00:33:55;;;;;;;11.67;4.53;;;;;;;9.04;65.56;98548.75;5018650;27;103922;-74
2022/02/18 00:36:23;;;;;;;17.87;4.50;;;;;;;9.00;65.74;98529.66;5017144;27;103305;-71
2022/02/18 00:38:51;;;;;;;13.13;3.43;;;;;;;9.03;66.05;98549.69;5019796;27;103225;-72
2022/02/18 00:41:19;;;;;;;16.13;4.47;;;;;;;9.02;65.79;98526.91;5016753;27;102672;-71
2022/02/18 00:43:47;;;;;;;14.10;4.40;;;;;;;8.93;65.78;98540.72;5019445;27;104086;-75
2022/02/18 00:46:15;;;;;;;15.30;4.17;;;;;;;9.00;65.84;98536.72;5019373;27;104247;-71
2022/02/18 00:48:46;;;;;;;18.43;4.43;;;;;;;8.89;66.08;98549.78;5026563;27;104220;-71
2022/02/18 00:51:14;;;;;;;11.17;3.73;;;;;;;8.98;65.79;98562.34;5024063;27;102642;-75
2022/02/18 00:53:45;;;;;;;13.00;3.60;;;;;;;8.98;66.16;98551.81;5022202;27;103155;-75
2022/02/18 00:56:15;;;;;;;15.20;4.03;;;;;;;9.02;66.07;98553.28;5022345;27;103262;-75
2022/02/18 00:58:44;;;;;;;11.30;3.50;;;;;;;9.02;65.79;98558.53;5023750;27;103272;-75
2022/02/18 01:01:12;;;;;;;9.60;3.13;;;;;;;9.08;66.04;98545.78;5016039;27;102676;-71
2022/02/18 01:03:40;;;;;;;11.70;3.20;;;;;;;9.02;65.89;98558.53;5022225;27;103802;-75
2022/02/18 01:06:09;;;;;;;10.13;3.10;;;;;;;9.10;65.37;98564.13;5022609;27;104279;-75
2022/02/18 01:08:40;;;;;;;16.73;4.87;;;;;;;9.10;64.93;98569.41;5020067;27;103973;-75
2022/02/18 01:11:08;;;;;;;18.00;5.23;;;;;;;9.05;65.04;98566.25;5019050;27;102740;-75
2022/02/18 01:13:36;;;;;;;13.57;3.73;;;;;;;9.08;64.78;98561.59;5018340;27;103789;-75
2022/02/18 01:16:05;;;;;;;13.27;4.07;;;;;;;9.04;65.17;98559.31;5021356;27;103909;-75
2022/02/18 01:18:33;;;;;;;15.83;4.40;;;;;;;9.07;65.31;98543.25;5021021;27;103410;-75
2022/02/18 01:21:01;;;;;;;18.63;4.23;;;;;;;9.07;64.75;98548.53;5020761;27;102651;-71
2022/02/18 01:23:31;;;;;;;16.80;5.10;;;;;;;9.01;65.47;98551.59;5019334;27;102868;-71
2022/02/18 01:26:00;;;;;;;16.20;5.27;;;;;;;9.01;65.04;98548.97;5021985;27;103344;-71
2022/02/18 01:28:30;;;;;;;16.20;4.33;;;;;;;9.10;65.02;98537.78;5020460;27;104184;-71
2022/02/18 01:30:58;;;;;;;12.43;3.77;;;;;;;9.04;64.98;98549.59;5026351;27;102700;-71
2022/02/18 01:33:26;;;;;;;15.77;3.93;;;;;;;9.11;64.98;98540.31;5022990;27;103636;-71
2022/02/18 01:35:55;;;;;;;9.07;2.77;;;;;;;9.09;65.19;98544.88;5020281;27;103655;-71
2022/02/18 01:38:23;;;;;;;12.77;3.73;;;;;;;9.05;65.26;98534.63;5023200;27;103420;-71
2022/02/18 01:40:53;;;;;;;16.23;3.80;;;;;;;9.06;64.84;98531.91;5024707;27;102633;-71
2022/02/18 01:43:21;;;;;;;11.47;3.60;;;;;;;9.10;65.11;98527.22;5023811;27;103685;-71
2022/02/18 01:45:50;;;;;;;6.57;3.27;;;;;;;9.11;65.24;98518.38;5026525;27;103912;-71
2022/02/18 01:48:18;;;;;;;10.90;3.30;;;;;;;9.12;64.65;98523.53;5025541;27;104099;-71
2022/02/18 01:50:46;;;;;;;15.90;4.57;;;;;;;9.13;64.04;98521.75;5024997;27;102629;-71
2022/02/18 01:53:18;;;;;;;11.50;3.07;;;;;;;9.20;64.26;98523.03;5022813;27;102756;-71
2022/02/18 01:55:46;;;;;;;10.63;2.93;;;;;;;9.18;64.19;98522.28;5022794;27;104156;-71
2022/02/18 01:58:16;;;;;;;14.33;3.63;;;;;;;9.10;64.03;98514.91;5026739;27;103199;-71
2022/02/18 02:00:44;;;;;;;13.93;4.17;;;;;;;9.15;64.01;98514.59;5021396;27;102705;-71
2022/02/18 02:03:12;;;;;;;9.67;3.07;;;;;;;9.22;64.08;98529.03;5030337;27;103854;-71
2022/02/18 02:05:41;;;;;;;11.83;3.70;;;;;;;9.25;63.61;98521.75;5020587;27;103208;-71
2022/02/18 02:08:10;;;;;;;15.77;3.93;;;;;;;9.21;63.93;98520.28;5024244;27;104251;-71
2022/02/18 02:10:45;;;;;;;10.80;2.90;;;;;;;9.25;63.99;98528.81;5023315;27;102578;-71
2022/02/18 02:13:30;;;;;;;14.17;3.47;;;;;;;9.15;64.37;98520.69;5021037;27;102707;-71
2022/02/18 02:16:00;;;;;;;14.43;3.40;;;;;;;9.29;63.73;98514.50;5020076;27;104318;-75
2022/02/18 02:18:28;;;;;;;13.97;3.33;;;;;;;9.25;63.75;98505.09;5020738;27;103187;-75
2022/02/18 02:20:56;;;;;;;7.70;2.93;;;;;;;9.28;63.88;98511.00;5019772;27;102803;-71
2022/02/18 02:23:33;;;;;;;10.70;2.97;;;;;;;9.32;63.97;98508.97;5021342;27;102948;-71
2022/02/18 02:26:02;;;;;;;9.53;3.47;;;;;;;9.27;64.05;98501.41;5019836;27;103838;-71
2022/02/18 02:28:34;;;;;;;8.80;3.03;;;;;;;9.23;64.60;98499.09;5021313;27;104140;-71
2022/02/18 02:31:03;;;;;;;9.10;3.17;;;;;;;9.29;64.51;98494.22;5024687;27;102788;-71
2022/02/18 02:33:35;;;;;;;9.00;2.87;;;;;;;9.31;64.54;98496.75;5024587;27;102819;-75
2022/02/18 02:36:03;;;;;;;9.93;2.73;;;;;;;9.37;64.05;98487.56;5025272;27;105978;-75
2022/02/18 02:38:33;;;;;;;9.27;3.13;;;;;;;9.29;64.47;98474.94;5019515;27;106149;-75
2022/02/18 02:41:04;;;;;;;13.40;3.83;;;;;;;9.27;64.90;98466.28;5020686;27;102723;-75
2022/02/18 02:43:34;;;;;;;6.63;2.13;;;;;;;9.27;65.70;98468.91;5020734;27;102682;-71
2022/02/18 02:46:03;;;;;;;6.97;2.30;;;;;;;9.19;65.30;98464.19;5022893;27;106130;-71
2022/02/18 02:48:31;;;;;;;4.30;1.97;;;;;;;9.16;65.58;98474.09;5021603;27;103191;-71
2022/02/18 02:51:22;;;;;;;6.07;2.00;;;;;;;9.10;66.24;98474.53;5012703;27;102707;-75
2022/02/18 02:53:52;;;;;;;5.77;2.00;;;;;;;9.10;66.29;98469.25;5022665;27;104338;-71
2022/02/18 02:56:20;;;;;;;6.67;2.27;;;;;;;9.13;66.26;98463.78;5023223;27;103362;-71
2022/02/18 02:58:49;;;;;;;6.53;2.37;;;;;;;9.12;66.09;98467.38;5023158;27;103277;-75
2022/02/18 03:01:26;;;;;;;6.00;2.37;;;;;;;9.06;66.66;98457.25;5011792;27;102812;-71
2022/02/18 03:03:54;;;;;;;6.77;2.30;;;;;;;9.03;66.72;98460.09;5021465;27;103935;-74
2022/02/18 03:06:23;;;;;;;8.57;2.90;;;;;;;8.93;67.44;98456.41;5019787;27;105062;-75
2022/02/18 03:08:55;;;;;;;6.13;1.90;;;;;;;8.96;67.74;98450.94;5021186;27;103304;-72
2022/02/18 03:11:37;;;;;;;6.73;2.30;;;;;;;8.89;67.39;98439.13;5023791;27;102708;-71
2022/02/18 03:14:13;;;;;;;10.63;3.20;;;;;;;8.89;67.68;98428.59;5022067;27;103754;-72
2022/02/18 03:16:55;;;;;;;6.37;2.00;;;;;;;8.89;68.37;98433.88;5023934;27;103236;-75
2022/02/18 03:19:23;;;;;;;6.87;2.43;;;;;;;8.86;68.47;98431.44;5023887;27;103227;-75
2022/02/18 03:21:54;;;;;;;6.87;2.17;;;;;;;8.85;68.33;98433.22;5022048;27;102560;-71
2022/02/18 03:24:26;;;;;;;8.57;2.90;;;;;;;8.76;68.68;98425.16;5024358;27;103691;-71
2022/02/18 03:26:55;;;;;;;7.27;2.30;;;;;;;8.72;68.03;98425.34;5021416;27;103448;-75
2022/02/18 03:29:27;;;;;;;5.57;2.20;;;;;;;8.78;67.69;98415.34;5020859;27;104312;-75
2022/02/18 03:32:04;;;;;;;9.03;2.90;;;;;;;8.68;68.17;98412.47;5022282;27;102655;-76
2022/02/18 03:34:35;;;;;;;8.50;2.90;;;;;;;8.62;68.21;98407.63;5018066;27;102928;-75
2022/02/18 03:37:04;;;;;;;10.50;2.70;;;;;;;8.63;68.39;98402.28;5020016;27;105498;-76
2022/02/18 03:39:34;;;;;;;6.60;2.17;;;;;;;8.53;68.86;98395.94;5019682;27;103205;-76
2022/02/18 03:42:05;;;;;;;7.43;2.20;;;;;;;8.60;68.37;98393.75;5021075;27;102794;-75
2022/02/18 03:44:36;;;;;;;7.40;1.97;;;;;;;8.57;68.61;98397.44;5019583;27;103965;-75
2022/02/18 03:47:07;;;;;;;11.77;3.00;;;;;;;8.60;68.47;98396.38;5023792;27;103878;-75
2022/02/18 03:49:36;;;;;;;7.70;2.70;;;;;;;8.58;68.89;98393.88;5019206;27;106300;-71
2022/02/18 03:52:07;;;;;;;9.63;3.30;;;;;;;8.50;68.95;98396.19;5022304;27;102723;-75
2022/02/18 03:54:38;;;;;;;8.27;2.20;;;;;;;8.54;69.19;98399.41;5020217;27;102951;-75
2022/02/18 03:57:06;;;;;;;8.37;2.50;;;;;;;8.54;69.07;98397.63;5018069;27;103913;-75
2022/02/18 03:59:37;;;;;;;6.80;2.00;;;;;;;8.55;68.71;98401.97;5023955;27;103366;-75
2022/02/18 04:02:06;;;;;;;15.50;3.80;;;;;;;8.47;69.16;98396.38;5020450;27;102659;-75
2022/02/18 04:04:34;;;;;;;11.67;3.13;;;;;;;8.49;69.19;98405.03;5013173;27;105033;-76
2022/02/18 04:07:21;;;;;;;11.87;2.80;;;;;;;8.48;69.54;98386.69;5021109;27;103041;-71
2022/02/18 04:09:55;;;;;;;9.83;3.13;;;;;;;8.55;69.27;98386.16;5019622;27;103372;-75
2022/02/18 04:12:24;;;;;;;8.17;2.83;;;;;;;8.56;69.24;98379.13;5021218;27;102726;-75
2022/02/18 04:14:58;;;;;;;5.00;2.03;;;;;;;8.55;69.49;98386.16;5021991;27;102637;-71
2022/02/18 04:17:27;;;;;;;11.60;3.30;;;;;;;8.42;70.29;98390.56;5017664;27;104275;-75
2022/02/18 04:20:09;;;;;;;8.60;2.53;;;;;;;8.53;69.93;98385.41;5021939;27;103302;-75
2022/02/18 04:22:59;;;;;;;12.60;3.17;;;;;;;8.51;69.71;98379.41;5016874;27;102742;-71
2022/02/18 04:25:33;;;;;;;5.07;2.27;;;;;;;8.51;69.91;98382.06;5020051;27;103984;-71
2022/02/18 04:28:03;;;;;;;10.50;3.10;;;;;;;8.55;69.99;98374.78;5019870;27;103128;-71
2022/02/18 04:30:32;;;;;;;8.97;2.80;;;;;;;8.57;69.97;98360.56;5019090;27;103186;-75
2022/02/18 04:33:02;;;;;;;6.90;2.20;;;;;;;8.61;69.51;98367.31;5021843;27;102884;-75
2022/02/18 04:35:30;;;;;;;8.20;2.67;;;;;;;8.59;70.17;98356.03;5019504;27;103950;-71
2022/02/18 04:38:00;;;;;;;9.80;3.40;;;;;;;8.54;70.36;98360.78;5021073;27;103192;-71
2022/02/18 04:40:28;;;;;;;8.50;2.40;;;;;;;8.61;70.32;98355.94;5018697;27;103238;-71
2022/02/18 04:43:00;;;;;;;15.37;2.77;;;;;;;8.64;69.94;98348.69;5021584;27;102715;-75
2022/02/18 04:45:30;;;;;;;7.30;2.90;;;;;;;8.67;69.98;98348.44;5021354;27;103635;-71
2022/02/18 04:47:58;;;;;;;11.03;3.50;;;;;;;8.68;70.09;98347.50;5022248;27;103152;-75
2022/02/18 04:50:26;;;;;;;10.97;3.47;;;;;;;8.68;70.39;98336.97;5024232;27;103670;-75
2022/02/18 04:52:54;;;;;;;10.20;3.00;;;;;;;8.71;70.17;98331.47;5021789;27;102716;-75
2022/02/18 04:55:23;;;;;;;5.37;2.00;;;;;;;8.77;69.90;98322.31;5021136;27;102744;-71
2022/02/18 04:57:51;;;;;;;7.47;2.17;;;;;;;8.78;69.95;98320.50;5021411;27;103953;-72
2022/02/18 05:00:21;;;;;;;10.87;3.00;;;;;;;8.84;70.70;98318.31;5022530;27;103285;-68
2022/02/18 05:02:49;;;;;;;7.83;2.50;;;;;;;8.78;70.80;98309.97;5024813;27;102906;-68
2022/02/18 05:05:17;;;;;;;5.57;2.00;;;;;;;8.84;70.82;98317.44;5025629;27;103576;-68
2022/02/18 05:07:45;;;;;;;5.10;1.73;;;;;;;8.87;70.69;98319.88;5023505;27;104236;-68
2022/02/18 05:10:13;;;;;;;12.23;3.53;;;;;;;8.87;70.48;98323.31;5024564;27;103233;-68
2022/02/18 05:12:44;;;;;;;7.37;2.20;;;;;;;8.88;70.70;98314.47;5033534;27;102936;-67
2022/02/18 05:15:12;;;;;;;14.00;3.97;;;;;;;8.79;71.19;98314.28;5022218;27;103826;-67
2022/02/18 05:17:48;;;;;;;6.63;2.67;;;;;;;8.85;71.34;98311.22;5025777;27;104184;-68
2022/02/18 05:20:17;;;;;;;7.73;2.33;;;;;;;8.88;71.46;98308.34;5025985;27;104182;-68
2022/02/18 05:22:45;;;;;;;9.23;2.90;;;;;;;8.87;71.55;98307.50;5028025;27;102687;-67
2022/02/18 05:25:15;;;;;;;14.37;3.40;;;;;;;8.88;72.04;98292.56;5025887;27;104178;-67
2022/02/18 05:27:43;;;;;;;11.20;2.93;;;;;;;8.80;72.09;98287.00;5028607;27;103107;-67
2022/02/18 05:30:12;;;;;;;8.27;3.27;;;;;;;8.81;72.73;98286.06;5021669;27;104132;-67
2022/02/18 05:32:40;;;;;;;14.07;3.20;;;;;;;8.91;72.09;98280.00;5025923;27;102881;-72
2022/02/18 05:35:10;;;;;;;15.47;3.20;;;;;;;8.93;72.29;98266.72;5032672;27;102690;-72
2022/02/18 05:37:38;;;;;;;8.80;3.20;;;;;;;8.92;72.42;98251.88;5018651;27;103218;-73
2022/02/18 05:40:07;;;;;;;8.43;3.23;;;;;;;8.91;72.65;98251.03;5020475;27;103256;-75
2022/02/18 05:42:36;;;;;;;14.97;3.67;;;;;;;8.86;73.05;98247.06;5019644;27;103680;-75
2022/02/18 05:45:07;;;;;;;8.93;2.90;;;;;;;8.91;72.44;98237.00;5018059;27;104688;-75
2022/02/18 05:47:37;;;;;;;11.97;3.47;;;;;;;8.97;72.37;98226.03;5020741;27;103202;-75
2022/02/18 05:50:11;;;;;;;12.00;3.23;;;;;;;8.89;72.64;98220.50;5023572;27;102577;-75
2022/02/18 05:52:41;;;;;;;17.73;4.10;;;;;;;8.95;72.18;98220.88;5019312;27;102644;-75
2022/02/18 05:55:10;;;;;;;11.73;2.77;;;;;;;8.96;72.27;98208.53;5021730;27;102672;-76
2022/02/18 05:57:38;;;;;;;12.03;3.10;;;;;;;8.97;72.09;98197.91;5016721;27;103925;-75
2022/02/18 06:00:08;;;;;;;7.70;2.60;;;;;;;9.07;71.77;98195.41;5020353;27;103185;-75
2022/02/18 06:02:42;;;;;;;11.03;3.03;;;;;;;9.02;71.44;98192.28;5018539;27;102677;-75
2022/02/18 06:05:12;;;;;;;13.80;4.50;;;;;;;9.04;72.17;98174.59;5023255;27;104178;-69
2022/02/18 06:07:43;;;;;;;9.00;2.80;;;;;;;9.05;71.81;98184.16;5021480;27;103938;-69
2022/02/18 06:10:11;;;;;;;11.17;2.83;;;;;;;9.11;71.73;98173.16;5017565;27;103205;-69
2022/02/18 06:12:40;;;;;;;13.23;3.30;;;;;;;9.09;71.55;98177.72;5012016;27;102570;-70
2022/02/18 06:15:08;;;;;;;7.83;2.60;;;;;;;9.11;71.43;98176.63;5024569;27;102670;-69
2022/02/18 06:17:38;;;;;;;10.00;3.23;;;;;;;9.07;71.46;98174.31;5017938;27;103202;-69
2022/02/18 06:20:08;;;;;;;11.90;3.20;;;;;;;9.16;71.24;98177.13;5022464;27;102943;-69
2022/02/18 06:22:38;;;;;;;9.47;2.47;;;;;;;9.18;71.14;98179.63;5024898;27;103014;-70
2022/02/18 06:25:09;;;;;;;11.63;3.40;;;;;;;9.24;70.89;98166.84;5019567;27;103159;-70
2022/02/18 06:27:38;;;;;;;14.27;3.27;;;;;;;9.26;71.00;98164.94;5019745;27;103200;-70
2022/02/18 06:30:08;;;;;;;11.90;3.03;;;;;;;9.28;71.17;98163.03;5022119;27;103184;-70
2022/02/18 06:32:36;;;;;;;15.30;2.87;;;;;;;9.27;71.09;98160.50;5015977;27;103913;-70
2022/02/18 06:35:05;;;;;;;13.93;3.40;;;;;;;9.33;70.86;98157.41;5022538;27;102631;-70
2022/02/18 06:37:33;;;;;;;9.27;2.50;;;;;;;9.34;71.06;98156.47;5020249;27;102999;-70
2022/02/18 06:40:03;;;;;;;9.93;3.33;;;;;;;9.35;71.31;98155.50;5012751;27;103171;-71
2022/02/18 06:42:30;;;;;;;11.23;2.93;;;;;;;9.38;71.29;98146.50;5012543;27;102687;-70
2022/02/18 06:44:58;;;;;;;8.37;2.97;;;;;;;9.42;70.99;98138.25;5020513;27;103148;-70
2022/02/18 06:47:27;;;;;;;8.60;2.77;;;;;;;9.49;70.56;98133.38;5019729;27;103280;-70
2022/02/18 06:49:54;;;;;;;6.43;2.90;;;;;;;9.47;70.69;98132.63;5021506;27;103236;-70
2022/02/18 06:52:22;;;;;;;10.17;2.40;;;;;;;9.51;70.81;98129.66;5020701;27;102733;-70
2022/02/18 06:54:51;;;;;;;10.63;3.27;;;;;;;9.45;70.75;98124.84;5021751;27;102856;-70
2022/02/18 06:57:23;;;;;;;12.30;5.10;;;;;;;9.55;70.61;98120.53;5019952;27;102907;-70
2022/02/18 06:59:51;;;;;;;13.97;4.83;;;;;;;9.59;70.90;98113.25;5018547;27;103346;-69
2022/02/18 07:02:19;;;;;;;10.53;2.97;;;;;;;9.60;70.67;98114.94;5020885;27;103129;-70
2022/02/18 07:04:47;;;;;;;8.63;2.87;;;;;;;9.62;70.54;98113.00;5019704;27;103604;-70
2022/02/18 07:07:15;;;;;;;12.43;3.40;;;;;;;9.64;70.72;98106.66;5021350;27;103230;-70
2022/02/18 07:09:43;;;;;;;8.60;3.00;;;;;;;9.69;70.22;98103.63;5022177;27;103172;-70
2022/02/18 07:12:11;;;;;;;11.83;3.50;;;;;;;9.61;70.40;98091.06;5019911;27;102679;-70
2022/02/18 07:14:40;;;;;;;8.80;3.27;;;;;;;9.65;70.82;98081.13;5019970;27;103082;-70
2022/02/18 07:17:10;;;;;;;11.50;3.23;;;;;;;9.73;70.31;98087.47;5018829;27;103009;-70
2022/02/18 07:19:38;;;;;;;13.70;3.73;;;;;;;9.68;70.86;98075.59;5017358;27;103227;-70
2022/02/18 07:22:06;;;;;;;12.70;3.03;;;;;;;9.75;70.54;98076.78;5020634;27;102644;-75
2022/02/18 07:24:34;;;;;;;14.53;3.57;;;;;;;9.82;70.37;98078.00;5022952;27;102664;-69
2022/02/18 07:27:02;;;;;;;13.30;3.67;;;;;;;9.86;70.76;98080.25;5018833;27;103310;-75
2022/02/18 07:29:30;;;;;;;10.63;3.40;;;;;;;9.93;70.31;98077.16;5022284;27;103309;-75
2022/02/18 07:32:01;;;;;;;9.43;2.80;;;;;;;9.98;70.22;98067.06;5020497;27;102575;-74
2022/02/18 07:34:29;;;;;;;11.03;2.90;;;;;;;9.93;70.47;98058.69;5019922;27;102621;-74
2022/02/18 07:36:57;;;;;;;12.07;3.90;;;;;;;9.92;70.50;98052.56;5022893;27;103937;-75
2022/02/18 07:39:25;;;;;;;16.43;3.40;;;;;;;9.91;70.70;98056.97;5017551;27;103344;-74
2022/02/18 07:41:56;;;;;;;10.20;2.60;;;;;;;9.91;71.19;98045.59;5019668;27;102811;-74
2022/02/18 07:44:28;;;;;;;9.43;2.87;;;;;;;9.93;71.15;98048.13;5022178;27;103880;-75
2022/02/18 07:46:56;;;;;;;9.17;2.50;;;;;;;9.97;71.25;98044.25;5022689;27;103915;-75
2022/02/18 07:49:47;;;;;;;9.70;2.73;;;;;;;9.99;71.15;98037.94;5020364;27;103179;-75
2022/02/18 07:52:16;;;;;;;7.40;2.77;;;;;;;10.02;71.55;98031.56;5020702;27;102621;-75
2022/02/18 07:54:44;;;;;;;11.80;2.30;;;;;;;10.04;71.64;98024.34;5022302;27;102626;-75
2022/02/18 07:57:12;;;;;;;11.07;2.93;;;;;;;10.05;71.65;98016.28;5019987;27;104298;-70
2022/02/18 07:59:40;;;;;;;9.50;2.40;;;;;;;10.10;71.80;97998.31;5016587;27;104309;-69
2022/02/18 08:02:08;;;;;;;8.93;2.77;;;;;;;10.15;71.54;98000.59;5019024;27;102540;-75
2022/02/18 08:04:36;;;;;;;11.37;3.23;;;;;;;10.22;71.65;97993.84;5014580;27;104019;-70
2022/02/18 08:07:12;;;;;;;10.83;3.00;;;;;;;10.31;71.44;97990.44;5017142;27;103173;-75
2022/02/18 08:09:40;;;;;;;11.13;2.73;;;;;;;10.37;71.60;97989.94;5018325;27;103176;-76
2022/02/18 08:12:09;;;;;;;8.53;2.83;;;;;;;10.43;71.46;97990.28;5019613;27;102718;-75
2022/02/18 08:14:37;;;;;;;9.07;2.40;;;;;;;10.51;71.62;97983.53;5020622;27;103821;-75
2022/02/18 08:17:05;;;;;;;7.20;2.10;;;;;;;10.55;71.83;97987.59;5016025;27;103279;-75
2022/02/18 08:19:33;;;;;;;7.47;2.83;;;;;;;10.58;71.66;97974.13;5019528;27;103224;-75
2022/02/18 08:22:03;;;;;;;8.80;2.40;;;;;;;10.56;72.25;97971.59;5019363;27;102515;-75
2022/02/18 08:24:38;;;;;;;11.23;2.60;;;;;;;10.63;72.63;97961.38;5018820;27;102647;-70
2022/02/18 08:27:06;;;;;;;6.97;1.90;;;;;;;10.71;72.44;97962.41;5017331;27;104477;-70
2022/02/18 08:29:35;;;;;;;8.97;2.57;;;;;;;10.83;72.27;97956.09;5015867;27;103266;-74
2022/02/18 08:32:04;;;;;;;6.23;2.13;;;;;;;10.93;72.11;97962.25;5018428;27;102594;-75
2022/02/18 08:34:32;;;;;;;5.63;1.77;;;;;;;10.93;72.86;97956.13;5021862;27;102654;-75
2022/02/18 08:37:02;;;;;;;6.43;1.60;;;;;;;11.00;73.02;97960.75;5017714;27;103244;-75
2022/02/18 08:39:31;;;;;;;6.13;2.10;;;;;;;11.03;73.11;97949.13;5020855;27;103149;-75
2022/02/18 08:42:00;;;;;;;6.43;2.00;;;;;;;11.12;73.41;97944.81;5021618;27;103115;-75
2022/02/18 08:44:29;;;;;;;5.67;1.40;;;;;;;11.12;74.09;97928.94;5018367;27;103014;-75
2022/02/18 08:46:57;;;;;;;4.93;1.73;;;;;;;11.25;73.63;97924.28;5021725;27;103751;-70
2022/02/18 08:49:25;;;;;;;6.47;1.70;;;;;;;11.39;73.67;97926.56;5020355;27;103377;-70
2022/02/18 08:51:53;;;;;;;4.63;1.63;;;;;;;11.50;73.62;97924.66;5017954;27;103146;-70
2022/02/18 08:54:21;;;;;;;4.73;1.20;;;;;;;11.55;73.94;97921.59;5020230;27;103755;-70
2022/02/18 08:56:51;;;;;;;3.67;1.70;;;;;;;11.60;74.50;97914.09;5017137;27;103611;-70
2022/02/18 08:59:20;;;;;;;5.23;1.67;;;;;;;11.67;74.41;97904.66;5017385;27;103922;-74
2022/02/18 09:01:48;;;;;;;6.93;1.60;;;;;;;11.75;74.40;97901.34;5019170;27;103041;-75
2022/02/18 09:04:16;;;;;;;5.17;1.27;;;;;;;11.83;74.35;97899.69;5019256;27;102737;-75
2022/02/18 09:06:45;;;;;;;4.83;1.27;;;;;;;12.03;73.79;97896.09;5014286;27;103894;-74
2022/02/18 09:09:13;;;;;;;4.30;1.30;;;;;;;12.15;73.74;97889.66;5018247;27;103524;-75
2022/02/18 09:11:42;;;;;;;2.13;1.10;;;;;;;12.21;73.37;97889.09;5016764;27;102685;-74
2022/02/18 09:14:10;;;;;;;4.47;1.97;;;;;;;12.30;73.43;97868.88;5017744;27;103632;-74
2022/02/18 09:16:44;;;;;;;6.47;1.70;;;;;;;12.29;73.47;97861.94;5019111;27;106074;-75
2022/02/18 09:19:12;;;;;;;3.90;1.43;;;;;;;12.30;73.72;97865.38;5015780;27;103680;-69
2022/02/18 09:21:40;;;;;;;5.07;1.40;;;;;;;12.37;73.48;97866.50;5017294;27;102972;-74
2022/02/18 09:24:09;;;;;;;2.87;1.20;;;;;;;12.33;73.77;97860.66;5009776;27;102569;-70
2022/02/18 09:26:37;;;;;;;2.70;1.27;;;;;;;12.41;73.25;97855.47;5024376;27;103670;-70
2022/02/18 09:29:11;;;;;;;3.20;1.10;;;;;;;12.50;72.89;97848.50;5019252;27;103291;-70
2022/02/18 09:31:39;;;;;;;3.37;1.20;;;;;;;12.59;72.80;97851.13;5015779;27;102639;-70
2022/02/18 09:34:09;;;;;;;3.47;1.53;;;;;;;12.65;72.43;97845.25;5016978;27;103935;-75
2022/02/18 09:36:37;;;;;;;2.80;1.20;;;;;;;12.72;72.42;97840.19;5020301;27;103247;-69
2022/02/18 09:39:07;;;;;;;2.63;1.10;;;;;;;12.82;71.82;97840.19;5019522;27;103489;-71
2022/02/18 09:41:36;;;;;;;2.87;1.27;;;;;;;12.90;71.86;97838.47;5017803;27;103066;-70
2022/02/18 09:44:04;;;;;;;5.30;1.30;;;;;;;13.02;71.61;97837.31;5018738;27;103743;-70
2022/02/18 09:46:33;;;;;;;4.80;1.20;;;;;;;13.21;71.13;97831.94;5020473;27;103770;-70
2022/02/18 09:49:05;;;;;;;5.00;1.10;;;;;;;13.26;71.06;97834.97;5021515;27;103225;-75
2022/02/18 09:51:37;;;;;;;2.73;1.00;;;;;;;13.38;71.08;97832.13;5024202;27;102695;-75
2022/02/18 09:54:06;;;;;;;2.57;1.10;;;;;;;13.46;70.93;97819.78;5023532;27;103206;-75
2022/02/18 09:56:35;;;;;;;2.40;1.00;;;;;;;13.54;70.88;97821.66;5018509;27;103670;-74
2022/02/18 09:59:07;;;;;;;2.67;0.90;;;;;;;13.71;70.63;97808.41;5020722;27;105500;-74
2022/02/18 10:01:35;;;;;;;2.30;1.00;;;;;;;13.85;70.09;97801.75;5023469;27;102615;-70
2022/02/18 10:04:03;;;;;;;6.13;1.20;;;;;;;13.82;70.36;97802.88;5023047;27;103964;-70
2022/02/18 10:06:32;;;;;;;3.37;1.13;;;;;;;13.97;69.77;97797.03;5022608;27;104507;-70
2022/02/18 10:09:01;;;;;;;1.80;1.00;;;;;;;13.82;69.71;97791.41;5022893;27;104199;-70
2022/02/18 10:11:55;;;;;;;5.03;1.13;;;;;;;13.95;69.45;97782.06;5022800;27;102591;-70
2022/02/18 10:14:23;;;;;;;2.60;1.13;;;;;;;14.13;68.94;97776.75;5024442;27;103537;-70
2022/02/18 10:16:51;;;;;;;4.17;1.17;;;;;;;14.24;68.82;97784.44;5027009;27;103992;-70
2022/02/18 10:19:21;;;;;;;2.47;1.10;;;;;;;14.53;68.13;97773.56;5023871;27;102986;-70
2022/02/18 10:22:01;;;;;;;2.70;1.00;;;;;;;14.70;66.87;97764.69;5024073;27;102602;-70
2022/02/18 10:24:41;;;;;;;2.07;1.20;;;;;;;14.64;67.05;97773.28;5022497;27;102673;-70
2022/02/18 10:27:11;;;;;;;3.03;1.07;;;;;;;14.66;67.15;97770.44;5023987;27;103277;-71
2022/02/18 10:29:57;;;;;;;1.60;0.80;;;;;;;14.70;67.31;97763.84;5022914;27;103203;-74
2022/02/18 10:32:25;;;;;;;3.07;1.20;;;;;;;14.79;66.73;97753.06;5022487;27;102794;-74
2022/02/18 10:34:55;;;;;;;1.20;0.70;;;;;;;15.00;66.22;97736.69;5024565;27;102928;-74
2022/02/18 10:37:25;;;;;;;3.53;1.40;;;;;;;15.08;66.10;97739.38;5022484;27;103806;-74
2022/02/18 10:40:08;;;;;;;4.47;1.10;;;;;;;15.33;66.05;97727.81;5021430;27;104196;-74
2022/02/18 10:42:36;;;;;;;3.73;1.40;;;;;;;15.46;64.75;97733.53;5020872;27;102717;-74
2022/02/18 10:45:11;;;;;;;3.00;1.27;;;;;;;15.45;65.05;97733.63;5023724;27;102854;-75
2022/02/18 10:47:41;;;;;;;2.70;0.80;;;;;;;15.53;64.44;97715.03;5020891;27;103257;-75
2022/02/18 10:50:16;;;;;;;4.47;1.07;;;;;;;15.60;64.84;97730.22;5019343;27;103131;-74
2022/02/18 10:53:04;;;;;;;4.20;1.00;;;;;;;15.76;64.29;97715.22;5022496;27;102654;-70
2022/02/18 10:55:48;;;;;;;4.03;0.90;;;;;;;15.77;63.79;97706.25;5021881;27;104164;-70
2022/02/18 10:58:21;;;;;;;1.77;1.17;;;;;;;15.59;63.91;97704.59;5021312;27;104605;-70
2022/02/18 11:01:02;;;;;;;2.93;0.80;;;;;;;15.82;63.44;97693.25;5021607;27;103226;-74
2022/02/18 11:03:30;;;;;;;4.13;1.17;;;;;;;16.23;62.77;97684.19;5023238;27;102587;-74
2022/02/18 11:06:10;;;;;;;2.70;0.90;;;;;;;17.04;59.67;97675.91;5023650;27;104795;-74
2022/02/18 11:08:40;;;;;;;4.77;0.93;;;;;;;17.26;58.32;97669.78;5021215;27;104073;-74
2022/02/18 11:11:11;;;;;;;3.73;0.70;;;;;;;17.20;58.25;97651.78;5018694;27;103052;-74
2022/02/18 11:13:41;;;;;;;2.50;0.80;;;;;;;17.31;57.49;97646.03;5021720;27;102655;-74
2022/02/18 11:16:11;;;;;;;1.48;0.85;;;;;;;17.27;58.06;97648.22;5019435;27;103669;-74
2022/02/18 11:18:40;;;;;;;4.38;1.20;;;;;;;17.31;57.29;97646.03;5023284;27;102971;-74
2022/02/18 11:21:09;;;;;;;4.90;1.00;;;;;;;16.81;58.08;97628.66;5020792;27;104119;-74
2022/02/18 11:23:42;;;;;;;3.00;1.10;;;;;;;17.21;57.44;97622.25;5022640;27;102867;-70
2022/02/18 11:26:17;;;;;;;2.22;0.90;;;;;;;17.04;58.11;97625.22;5027445;27;102840;-70
2022/02/18 11:28:46;;;;;;;1.63;0.60;;;;;;;17.08;57.39;97631.84;5024440;27;103635;-75
2022/02/18 11:31:19;;;;;;;4.15;0.75;;;;;;;16.79;58.02;97609.34;5022811;27;103268;-70
2022/02/18 11:34:21;;;;;;;3.28;0.75;;;;;;;16.76;57.97;97611.53;5019741;27;103027;-71
2022/02/18 11:37:37;;;;;;;2.50;0.80;;;;;;;16.48;58.39;97611.16;5026888;27;102783;-71
2022/02/18 11:40:37;;;;;;;2.60;0.75;;;;;;;16.46;58.15;97599.84;5021228;27;104235;-70
2022/02/18 11:43:22;;;;;;;2.60;0.70;;;;;;;16.37;57.99;97592.03;5017165;27;104235;-70